Historyczne dane pomiarowe

Dodano dane terminowe – wersja testowa.

Dane z okresu 1951-2018

Wersja bazy: 1.27 [2018-11-28, lista zmian], aktualizacja planowana na 2018-12-07

Dane meteo z obszaru Polski uzyskane na podstawie danych udostępnionych przez Instytut Meteorologii i Gospodarki Wodnej – Państwowy Instytut Badawczy.

 

Wybierz Datę:    

       

TemperaturaWilgotnośćWiatrCiśnienieOpadyŚniegCzas trwania zjawisk
 Stacja t tx tn tng RH VA  wxwx mslp ppp RRR   cm mm wxwxwxwxwxwxwx
1978-11-08 2.0 5.2 -1.6- 99.5- 8.0 2.7---- 0.2------------
1978-11-09 0.3 1.0 -0.3- 98.3- 8.0 2.7---- 0.0------------
1978-11-10 -0.5 0.4 -1.3- 98.3- 8.0 5.0---- 0.0------------
1978-11-11 -2.0 -1.2 -2.3- 96.3- 8.0 5.0---- 0.0------------
1978-11-12 -3.0 -2.1 -3.6- 91.3- 8.0 5.0---- 0.0------------
1978-11-13 -3.8 -2.9 -4.0- 95.5- 8.0 4.3---- 0.0------------
1978-11-14 -3.5 -1.5 -4.8- 97.5- 7.7 3.0---- 0.0------------
1978-11-15 -2.7 -2.4 -3.1- 95.5- 8.0 5.0---- 0.0------------
1978-11-16 -2.8 -2.0 -3.1- 97.3- 8.0 5.0---- 0.2------------
1978-11-17 -1.0 6.0 -4.7- 88.0- 3.3 2.3---- 0.0------------
1978-11-18 -2.3 -1.4 -2.6- 97.0- 8.0 5.0---- 0.0------------
1978-11-19 -1.9 -1.4 -2.7- 96.3- 8.0 6.0---- 0.0------------
1978-11-20 -2.7 -2.0 -3.3- 94.5- 7.3 4.7---- 0.0------------
1978-11-21 -1.0 1.2 -3.3- 95.3- 7.3 2.7---- 0.0------------
1978-11-22 -1.3 -0.7 -1.4- 98.8- 6.3 5.0---- 0.2------------
1978-11-23 -0.9 -0.2 -1.4- 99.0- 6.7 5.0---- 0.5------------
1978-11-24 0.2 0.4 -0.3- 99.3- 8.0 5.0---- 0.9------------
1978-11-25 -0.3 0.2 -0.8- 99.8- 8.0 5.0---- 0.4------------
1978-11-26 -1.5 -0.7 -2.2- 98.0- 8.0 3.3---- 0.0------------
1978-11-27 -0.8 1.8 -2.6- 95.0- 7.7 2.7---- 7.6------------
1978-11-28 -1.5 0.7 -2.3- 94.0- 8.0 3.7---- 8.2-- 6---------
1978-11-29 -2.0 -0.9 -2.6- 89.5- 8.0 3.3---- 6.1-- 13---------
1978-11-30 -1.9 -0.8 -8.8- 94.0- 8.0 3.3---- 9.2-- 20---------
1978-12-01 0.0 0.7 -0.9- 98.0- 8.0 4.0---- 0.5-- 24---------
1978-12-02 -0.7 0.4 -1.4- 98.0- 8.0 3.7---- 1.1-- 18---------
1978-12-03 -3.4 -1.0 -5.3- 88.5- 7.7 2.3---- 0.8-- 16---------
1978-12-04-12.3 -4.9-15.7- 72.3- 5.3 5.0---- 0.4-- 15---------
1978-12-05-13.6-10.4-21.7- 76.0- 5.0 2.7---- 1.2-- 15---------
1978-12-06-12.9 -8.9-22.6- 77.0- 3.3 3.0---- 0.0-- 18---------
1978-12-07-16.0 -8.1-25.2- 70.5- 1.3 1.3---- 0.0-- 17---------
203.5 ms

 

Źródłem pochodzenia danych jest Instytut Meteorologii i Gospodarki Wodnej – Państwowy Instytut Badawczy. Dane Instytutu Meteorologii i Gospodarki Wodnej – Państwowego Instytutu Badawczego zostały przetworzone.

Dane źródłowe można odnaleźć na stronie https://dane.imgw.pl